createdAt,value
2018-02-08T00:01:46.389Z,49.90
2018-02-08T00:04:13.926Z,50.10
2018-02-08T00:06:41.661Z,50.30
2018-02-08T00:09:10.139Z,50.00
2018-02-08T00:11:38.435Z,49.90
2018-02-08T00:14:06.233Z,49.90
2018-02-08T00:16:33.934Z,50.10
2018-02-08T00:19:02.423Z,50.20
2018-02-08T00:21:30.765Z,50.10
2018-02-08T00:23:58.474Z,50.10
2018-02-08T00:26:26.781Z,50.20
2018-02-08T00:28:54.499Z,50.20
2018-02-08T00:31:23.141Z,50.20
2018-02-08T00:33:50.717Z,50.20
2018-02-08T00:36:18.567Z,50.30
2018-02-08T00:38:46.274Z,50.20
2018-02-08T00:41:14.812Z,50.20
2018-02-08T00:43:42.576Z,50.10
2018-02-08T00:46:10.102Z,50.20
2018-02-08T00:48:37.797Z,50.10
2018-02-08T00:51:05.366Z,50.20
2018-02-08T00:53:33.062Z,50.00
2018-02-08T00:56:01.542Z,49.80
2018-02-08T00:58:29.262Z,49.80
2018-02-08T01:00:57.027Z,49.80
2018-02-08T01:03:24.736Z,50.10
2018-02-08T01:05:53.272Z,49.90
2018-02-08T01:08:20.977Z,49.90
2018-02-08T01:10:49.414Z,49.80
2018-02-08T01:13:17.122Z,49.80
2018-02-08T01:15:45.458Z,50.00
2018-02-08T01:18:13.321Z,50.00
2018-02-08T01:20:40.942Z,49.80
2018-02-08T01:23:08.747Z,50.00
2018-02-08T01:25:36.450Z,50.20
2018-02-08T01:28:04.889Z,50.20
2018-02-08T01:30:32.858Z,49.70
2018-02-08T01:33:00.566Z,49.60
2018-02-08T01:35:29.308Z,49.80
2018-02-08T01:37:56.873Z,49.90
2018-02-08T01:40:24.529Z,50.00
2018-02-08T01:42:52.233Z,49.70
2018-02-08T01:45:20.719Z,49.80
2018-02-08T01:47:49.062Z,50.00
2018-02-08T01:50:17.019Z,50.00
2018-02-08T01:52:44.681Z,49.80
2018-02-08T01:55:12.444Z,49.80
2018-02-08T01:57:40.208Z,49.80
2018-02-08T02:00:07.914Z,50.00
2018-02-08T02:02:36.454Z,49.80
2018-02-08T02:05:04.118Z,49.80
2018-02-08T02:07:31.818Z,49.80
2018-02-08T02:10:00.464Z,50.30
2018-02-08T02:12:28.125Z,49.70
2018-02-08T02:14:55.730Z,49.90
2018-02-08T02:17:24.085Z,49.70
2018-02-08T02:19:51.928Z,49.70
2018-02-08T02:22:19.795Z,50.10
2018-02-08T02:24:47.498Z,49.80
2018-02-08T02:27:16.144Z,50.00
2018-02-08T02:29:43.804Z,49.90
2018-02-08T02:32:11.510Z,49.70
2018-02-08T02:34:39.806Z,49.80
2018-02-08T02:37:07.371Z,49.80
2018-02-08T02:39:35.167Z,49.80
2018-02-08T02:42:02.734Z,49.80
2018-02-08T02:44:30.491Z,49.90
2018-02-08T02:46:58.155Z,49.90
2018-02-08T02:49:25.781Z,49.90
2018-02-08T02:51:53.410Z,49.90
2018-02-08T02:54:21.957Z,49.90
2018-02-08T02:56:49.926Z,49.70
2018-02-08T02:59:17.464Z,49.80
2018-02-08T03:01:44.986Z,49.80
2018-02-08T03:04:13.470Z,49.90
2018-02-08T03:06:41.904Z,49.80
2018-02-08T03:09:10.278Z,49.80
2018-02-08T03:11:37.947Z,49.80
2018-02-08T03:14:05.913Z,49.80
2018-02-08T03:16:33.622Z,50.00
2018-02-08T03:19:01.938Z,49.90
2018-02-08T03:21:29.653Z,49.90
2018-02-08T03:23:58.198Z,50.20
2018-02-08T03:26:26.064Z,49.90
2018-02-08T03:28:57.722Z,49.70
2018-02-08T03:31:25.294Z,49.70
2018-02-08T03:33:52.809Z,49.80
2018-02-08T03:36:20.602Z,49.80
2018-02-08T03:38:48.366Z,49.70
2018-02-08T03:41:16.048Z,49.80
2018-02-08T03:43:43.689Z,49.90
2018-02-08T03:46:11.453Z,49.80
2018-02-08T03:48:38.986Z,49.80
2018-02-08T03:51:06.506Z,50.00
2018-02-08T03:53:34.234Z,49.90
2018-02-08T03:56:01.938Z,50.00
2018-02-08T03:58:30.221Z,49.90
2018-02-08T04:00:58.653Z,49.80
2018-02-08T04:03:26.270Z,49.80
2018-02-08T04:05:54.734Z,50.00
2018-02-08T04:08:23.142Z,49.90
2018-02-08T04:10:50.836Z,49.70
2018-02-08T04:13:18.541Z,49.80
2018-02-08T04:15:47.026Z,50.50
2018-02-08T04:18:15.366Z,49.80
2018-02-08T04:20:43.041Z,49.80
2018-02-08T04:23:10.722Z,50.00
2018-02-08T04:25:39.202Z,49.60
2018-02-08T04:28:07.642Z,50.20
2018-02-08T04:30:35.347Z,50.10
2018-02-08T04:33:03.826Z,50.20
2018-02-08T04:35:31.548Z,50.20
2018-02-08T04:37:59.312Z,50.40
2018-02-08T04:40:39.159Z,50.20
2018-02-08T04:43:18.706Z,50.20
2018-02-08T04:45:58.438Z,50.10
2018-02-08T04:48:26.208Z,50.00
2018-02-08T04:50:53.973Z,50.30
2018-02-08T04:53:21.713Z,50.50
2018-02-08T04:55:49.500Z,50.40
2018-02-08T04:58:17.265Z,50.30
2018-02-08T05:00:44.970Z,50.50
2018-02-08T05:03:13.408Z,50.30
2018-02-08T05:05:41.172Z,50.30
2018-02-08T05:08:08.935Z,50.40
2018-02-08T05:10:36.598Z,50.50
2018-02-08T05:13:04.221Z,50.60
2018-02-08T05:15:31.854Z,50.50
2018-02-08T05:17:59.426Z,50.70
2018-02-08T05:20:27.858Z,50.70
2018-02-08T05:22:55.386Z,50.70
2018-02-08T05:25:23.182Z,50.90
2018-02-08T05:27:50.802Z,50.70
2018-02-08T05:30:19.222Z,51.00
2018-02-08T05:32:46.884Z,51.00
2018-02-08T05:35:14.469Z,50.80
2018-02-08T05:37:43.028Z,50.80
2018-02-08T05:40:10.791Z,50.80
2018-02-08T05:42:38.321Z,50.70
2018-02-08T05:45:05.966Z,50.40
2018-02-08T05:47:34.254Z,50.50
2018-02-08T05:50:02.165Z,50.50
2018-02-08T05:52:29.697Z,50.70
2018-02-08T05:54:57.376Z,50.50
2018-02-08T05:57:25.142Z,50.50
2018-02-08T05:59:52.729Z,50.40
2018-02-08T06:02:20.565Z,50.40
2018-02-08T06:04:48.270Z,50.60
2018-02-08T06:07:16.810Z,50.80
2018-02-08T06:09:44.334Z,50.80
2018-02-08T06:12:12.133Z,50.50
2018-02-08T06:14:39.838Z,50.50
2018-02-08T06:17:08.278Z,50.70
2018-02-08T06:19:35.986Z,50.70
2018-02-08T06:22:04.285Z,50.80
2018-02-08T06:24:32.022Z,50.80
2018-02-08T06:27:00.459Z,50.60
2018-02-08T06:29:28.166Z,50.60
2018-02-08T06:31:56.601Z,50.70
2018-02-08T06:34:24.467Z,50.60
2018-02-08T06:36:52.002Z,50.60
2018-02-08T06:39:19.790Z,50.90
2018-02-08T06:41:47.369Z,51.00
2018-02-08T06:44:14.934Z,51.10
2018-02-08T06:46:42.676Z,50.90
2018-02-08T06:49:10.439Z,50.60
2018-02-08T06:51:37.969Z,50.90
2018-02-08T06:54:05.510Z,50.90
2018-02-08T06:56:33.935Z,51.10
2018-02-08T06:59:01.639Z,51.10
2018-02-08T07:01:30.126Z,51.50
2018-02-08T07:03:59.172Z,50.90
2018-02-08T07:06:26.718Z,50.90
2018-02-08T07:08:54.307Z,50.90
2018-02-08T07:11:21.909Z,50.90
2018-02-08T07:13:50.433Z,51.10
2018-02-08T07:16:18.139Z,51.00
2018-02-08T07:18:46.562Z,51.00
2018-02-08T07:21:14.098Z,51.00
2018-02-08T07:23:41.850Z,51.00
2018-02-08T07:26:10.278Z,51.00
2018-02-08T07:28:37.986Z,50.90
2018-02-08T07:31:06.313Z,51.40
2018-02-08T07:33:34.082Z,50.80
2018-02-08T07:36:01.650Z,51.20
2018-02-08T07:38:29.406Z,51.20
2018-02-08T07:40:57.118Z,51.10
2018-02-08T07:43:25.462Z,51.00
2018-02-08T07:45:53.029Z,51.00
2018-02-08T07:48:20.706Z,50.80
2018-02-08T07:50:48.269Z,50.90
2018-02-08T07:53:16.546Z,51.10
2018-02-08T07:55:44.885Z,51.80
2018-02-08T07:58:12.542Z,51.20
2018-02-08T08:00:40.349Z,51.20
2018-02-08T08:03:08.784Z,51.20
2018-02-08T08:05:36.322Z,51.10
2018-02-08T08:08:04.049Z,51.70
2018-02-08T08:10:31.771Z,51.10
2018-02-08T08:12:59.298Z,51.20
2018-02-08T08:15:26.930Z,51.30
2018-02-08T08:17:55.282Z,51.10
2018-02-08T08:20:22.978Z,51.10
2018-02-08T08:22:51.453Z,50.90
2018-02-08T08:25:19.995Z,50.80
2018-02-08T08:27:47.518Z,50.80
2018-02-08T08:30:15.421Z,50.90
2018-02-08T08:32:43.288Z,50.80
2018-02-08T08:35:10.823Z,50.70
2018-02-08T08:37:38.610Z,50.50
2018-02-08T08:40:06.272Z,50.50
2018-02-08T08:42:34.086Z,50.50
2018-02-08T08:45:02.617Z,50.50
2018-02-08T08:47:30.118Z,50.50
2018-02-08T08:49:58.045Z,50.30
2018-02-08T08:52:25.809Z,50.10
2018-02-08T08:54:53.334Z,49.90
2018-02-08T08:57:20.917Z,49.90
2018-02-08T08:59:48.633Z,49.90
2018-02-08T09:02:17.072Z,50.40
2018-02-08T09:04:44.742Z,49.90
2018-02-08T09:07:12.394Z,49.70
2018-02-08T09:09:40.102Z,49.40
2018-02-08T09:12:08.578Z,49.20
2018-02-08T09:14:36.302Z,49.10
2018-02-08T09:17:04.006Z,49.20
2018-02-08T09:19:32.489Z,49.10
2018-02-08T09:22:00.770Z,48.90
2018-02-08T09:24:29.246Z,48.90
2018-02-08T09:26:57.783Z,49.00
2018-02-08T09:29:25.445Z,48.90
2018-02-08T09:31:53.222Z,48.90
2018-02-08T09:34:20.762Z,49.00
2018-02-08T09:36:48.478Z,48.80
2018-02-08T09:39:16.954Z,49.00
2018-02-08T09:41:45.242Z,48.90
2018-02-08T09:44:13.668Z,48.60
2018-02-08T09:46:41.536Z,48.60
2018-02-08T09:49:09.346Z,48.80
2018-02-08T09:51:37.825Z,49.30
2018-02-08T09:54:06.126Z,49.20
2018-02-08T09:56:34.585Z,49.10
2018-02-08T09:59:03.222Z,49.20
2018-02-08T10:01:30.884Z,49.10
2018-02-08T10:03:58.386Z,49.40
2018-02-08T10:06:26.923Z,49.60
2018-02-08T10:08:54.892Z,49.50
2018-02-08T10:11:22.861Z,49.60
2018-02-08T10:13:50.729Z,49.60
2018-02-08T10:16:18.270Z,49.50
2018-02-08T10:18:45.991Z,49.60
2018-02-08T10:21:14.278Z,49.70
2018-02-08T10:23:41.930Z,49.70
2018-02-08T10:26:10.414Z,49.50
2018-02-08T10:28:38.894Z,49.60
2018-02-08T10:31:07.431Z,49.50
2018-02-08T10:33:35.196Z,49.40
2018-02-08T10:36:02.848Z,49.40
2018-02-08T10:38:30.446Z,49.40
2018-02-08T10:40:58.180Z,49.10
2018-02-08T10:43:25.945Z,48.90
2018-02-08T10:45:53.535Z,48.70
2018-02-08T10:48:21.206Z,48.80
2018-02-08T10:50:49.691Z,49.60
2018-02-08T10:53:17.974Z,48.80
2018-02-08T10:55:46.441Z,48.70
2018-02-08T10:58:14.269Z,48.70
2018-02-08T11:00:41.810Z,49.00
2018-02-08T11:03:10.208Z,48.70
2018-02-08T11:05:37.869Z,48.70
2018-02-08T11:08:05.578Z,49.20
2018-02-08T11:10:34.018Z,48.60
2018-02-08T11:13:01.562Z,48.60
2018-02-08T11:15:29.278Z,48.40
2018-02-08T11:17:57.818Z,49.30
2018-02-08T11:20:25.518Z,48.70
2018-02-08T11:22:54.061Z,48.50
2018-02-08T11:25:21.723Z,48.50
2018-02-08T11:27:49.486Z,48.50
2018-02-08T11:30:17.114Z,48.50
2018-02-08T11:32:44.742Z,48.00
2018-02-08T11:35:12.334Z,47.70
2018-02-08T11:37:40.133Z,48.20
2018-02-08T11:40:07.999Z,47.30
2018-02-08T11:42:35.661Z,47.40
2018-02-08T11:45:03.215Z,48.00
2018-02-08T11:47:30.733Z,47.40
2018-02-08T11:49:59.202Z,47.50
2018-02-08T11:52:27.741Z,47.60
2018-02-08T11:54:55.295Z,47.60
2018-02-08T11:57:22.858Z,47.60
2018-02-08T11:59:50.726Z,47.50
2018-02-08T12:02:18.389Z,47.50
2018-02-08T12:04:46.101Z,47.60
2018-02-08T12:07:14.532Z,47.30
2018-02-08T12:09:42.125Z,47.20
2018-02-08T12:12:09.962Z,47.40
2018-02-08T12:14:37.723Z,46.90
2018-02-08T12:17:05.432Z,47.20
2018-02-08T12:19:33.864Z,47.10
2018-02-08T12:22:01.396Z,47.00
2018-02-08T12:24:29.187Z,47.10
2018-02-08T12:26:57.053Z,47.20
2018-02-08T12:29:24.579Z,47.30
2018-02-08T12:31:52.133Z,47.40
2018-02-08T12:34:19.936Z,47.10
2018-02-08T12:36:47.585Z,47.10
2018-02-08T12:39:15.258Z,47.40
2018-02-08T12:41:42.961Z,47.60
2018-02-08T12:44:10.991Z,47.10
2018-02-08T12:46:38.558Z,47.00
2018-02-08T12:49:06.315Z,47.20
2018-02-08T12:51:34.026Z,47.20
2018-02-08T12:54:02.505Z,47.40
2018-02-08T12:56:30.908Z,47.30
2018-02-08T12:58:58.638Z,47.20
2018-02-08T13:01:26.306Z,47.90
2018-02-08T13:03:54.743Z,47.10
2018-02-08T13:06:23.223Z,47.10
2018-02-08T13:08:51.006Z,47.50
2018-02-08T13:11:18.858Z,47.50
2018-02-08T13:13:46.421Z,47.20
2018-02-08T13:16:14.075Z,46.80
2018-02-08T13:18:41.778Z,47.00
2018-02-08T13:21:09.506Z,46.80
2018-02-08T13:23:37.995Z,47.70
2018-02-08T13:26:05.515Z,47.30
2018-02-08T13:28:33.033Z,47.20
2018-02-08T13:31:00.702Z,47.50
2018-02-08T13:33:29.221Z,47.80
2018-02-08T13:35:56.945Z,47.70
2018-02-08T13:38:24.646Z,47.60
2018-02-08T13:40:52.330Z,48.00
2018-02-08T13:43:20.141Z,47.80
2018-02-08T13:45:48.677Z,48.10
2018-02-08T13:48:32.154Z,48.10
2018-02-08T13:51:06.529Z,48.30
2018-02-08T13:56:43.986Z,48.20
2018-02-08T13:59:17.922Z,48.30
2018-02-08T14:01:52.060Z,48.30
2018-02-08T14:04:19.686Z,48.20
2018-02-08T14:06:47.318Z,48.60
2018-02-08T14:09:14.817Z,48.60
2018-02-08T14:11:42.606Z,48.50
2018-02-08T14:14:10.370Z,48.60
2018-02-08T14:16:37.983Z,48.50
2018-02-08T14:19:06.411Z,48.80
2018-02-08T14:21:33.950Z,48.80
2018-02-08T14:24:01.678Z,48.80
2018-02-08T14:26:30.215Z,49.20
2018-02-08T14:28:57.768Z,49.20
2018-02-08T14:31:25.345Z,49.00
2018-02-08T14:33:53.246Z,49.00
2018-02-08T14:36:21.690Z,48.70
2018-02-08T14:38:49.343Z,48.70
2018-02-08T14:41:17.004Z,48.70
2018-02-08T14:43:44.713Z,48.80
2018-02-08T14:46:13.190Z,49.30
2018-02-08T14:48:41.729Z,49.60
2018-02-08T14:51:09.438Z,49.50
2018-02-08T14:53:37.914Z,49.70
2018-02-08T14:56:06.398Z,49.70
2018-02-08T14:58:34.834Z,49.90
2018-02-08T15:01:02.544Z,49.90
2018-02-08T15:03:31.022Z,50.00
2018-02-08T15:05:59.506Z,50.00
2018-02-08T15:08:28.041Z,50.20
2018-02-08T15:10:55.617Z,50.20
2018-02-08T15:13:23.135Z,49.80
2018-02-08T15:15:50.666Z,50.00
2018-02-08T15:18:18.942Z,50.00
2018-02-08T15:20:47.373Z,50.20
2018-02-08T15:23:15.245Z,50.20
2018-02-08T15:25:42.902Z,50.20
2018-02-08T15:28:10.480Z,50.20
2018-02-08T15:30:38.278Z,50.40
2018-02-08T15:33:06.091Z,50.30
2018-02-08T15:35:33.854Z,50.00
2018-02-08T15:38:01.518Z,50.40
2018-02-08T15:40:29.070Z,50.20
2018-02-08T15:42:56.840Z,50.20
2018-02-08T15:45:24.369Z,50.10
2018-02-08T15:47:52.061Z,49.80
2018-02-08T15:50:19.825Z,50.20
2018-02-08T15:52:47.487Z,50.40
2018-02-08T15:55:15.046Z,50.40
2018-02-08T15:57:42.754Z,50.40
2018-02-08T16:00:11.189Z,50.40
2018-02-08T16:02:38.722Z,50.40
2018-02-08T16:05:06.511Z,50.60
2018-02-08T16:07:34.276Z,50.70
2018-02-08T16:10:01.986Z,50.60
2018-02-08T16:12:31.282Z,51.00
2018-02-08T16:14:59.727Z,51.00
2018-02-08T16:17:27.384Z,51.00
2018-02-08T16:19:55.144Z,50.90
2018-02-08T16:22:22.690Z,50.80
2018-02-08T16:24:50.672Z,51.00
2018-02-08T16:27:18.436Z,51.00
2018-02-08T16:29:45.990Z,51.00
2018-02-08T16:32:13.706Z,50.80
2018-02-08T16:34:42.139Z,51.00
2018-02-08T16:37:09.754Z,51.00
2018-02-08T16:39:38.281Z,50.80
2018-02-08T16:42:05.813Z,50.80
2018-02-08T16:44:33.368Z,51.00
2018-02-08T16:47:01.163Z,50.80
2018-02-08T16:49:28.825Z,50.90
2018-02-08T16:51:56.529Z,50.80
2018-02-08T16:54:24.194Z,51.10
2018-02-08T16:56:52.732Z,51.30
2018-02-08T16:59:20.496Z,51.30
2018-02-08T17:01:48.157Z,51.20
2018-02-08T17:04:15.730Z,51.20
2018-02-08T17:06:43.379Z,51.20
2018-02-08T17:09:11.245Z,51.10
2018-02-08T17:11:38.954Z,51.20
2018-02-08T17:14:07.430Z,51.40
2018-02-08T17:16:35.356Z,51.30
2018-02-08T17:19:02.926Z,51.50
2018-02-08T17:21:30.676Z,51.30
2018-02-08T17:23:59.106Z,51.60
2018-02-08T17:26:27.540Z,51.30
2018-02-08T17:28:55.406Z,51.30
2018-02-08T17:31:23.110Z,51.60
2018-02-08T17:33:51.554Z,51.50
2018-02-08T17:36:19.254Z,51.50
2018-02-08T17:38:47.710Z,51.60
2018-02-08T17:41:15.557Z,51.60
2018-02-08T17:43:43.218Z,51.60
2018-02-08T17:46:10.926Z,51.60
2018-02-08T17:48:39.314Z,51.70
2018-02-08T17:51:07.601Z,51.50
2018-02-08T17:53:35.418Z,51.50
2018-02-08T17:56:03.063Z,51.60
2018-02-08T17:58:30.725Z,51.80
2018-02-08T18:00:58.426Z,51.80
2018-02-08T18:03:26.745Z,51.50
2018-02-08T18:05:54.474Z,51.50
2018-02-08T18:08:22.908Z,51.70
2018-02-08T18:10:50.430Z,51.60
2018-02-08T18:13:18.129Z,51.80
2018-02-08T18:15:45.790Z,51.90
2018-02-08T18:18:13.318Z,51.90
2018-02-08T18:20:41.146Z,52.00
2018-02-08T18:23:08.673Z,52.30
2018-02-08T18:25:36.295Z,52.20
2018-02-08T18:28:03.914Z,52.20
2018-02-08T18:30:31.598Z,52.40
2018-02-08T18:33:00.082Z,52.70
2018-02-08T18:35:28.558Z,52.60
2018-02-08T18:37:57.046Z,52.50
2018-02-08T18:40:25.479Z,52.40
2018-02-08T18:42:53.094Z,52.40
2018-02-08T18:45:21.565Z,52.20
2018-02-08T18:47:50.103Z,52.20
2018-02-08T18:50:17.764Z,52.20
2018-02-08T18:52:45.528Z,51.90
2018-02-08T18:55:13.117Z,51.80
2018-02-08T18:57:40.749Z,52.10
2018-02-08T19:00:08.274Z,52.40
2018-02-08T19:02:35.806Z,52.30
2018-02-08T19:05:04.453Z,51.90
2018-02-08T19:07:32.215Z,51.80
2018-02-08T19:09:59.979Z,51.70
2018-02-08T19:12:27.846Z,51.70
2018-02-08T19:14:55.506Z,51.90
2018-02-08T19:17:23.214Z,51.50
2018-02-08T19:19:51.550Z,51.40
2018-02-08T19:22:19.209Z,51.40
2018-02-08T19:24:46.917Z,51.70
2018-02-08T19:27:15.351Z,51.30
2018-02-08T19:29:42.930Z,51.20
2018-02-08T19:32:11.966Z,51.20
2018-02-08T19:34:39.514Z,51.20
2018-02-08T19:37:07.839Z,50.80
2018-02-08T19:39:35.378Z,50.70
2018-02-08T19:42:02.934Z,50.40
2018-02-08T19:44:30.558Z,50.50
2018-02-08T19:46:58.158Z,50.30
2018-02-08T19:49:25.673Z,50.60
2018-02-08T19:51:53.607Z,50.70
2018-02-08T19:54:22.338Z,50.70
2018-02-08T19:56:50.865Z,50.40
2018-02-08T19:59:18.587Z,50.30
2018-02-08T20:01:46.106Z,50.60
2018-02-08T20:04:13.710Z,51.50
2018-02-08T20:06:42.158Z,51.20
2018-02-08T20:09:09.865Z,51.20
2018-02-08T20:11:37.425Z,51.00
2018-02-08T20:14:10.752Z,51.00
2018-02-08T20:16:38.274Z,50.80
2018-02-08T20:19:05.801Z,50.70
2018-02-08T20:21:33.338Z,50.60
2018-02-08T20:24:00.858Z,50.00
2018-02-08T20:26:28.855Z,50.20
2018-02-08T20:28:56.606Z,49.90
2018-02-08T20:31:29.666Z,49.40
2018-02-08T20:33:57.542Z,50.30
2018-02-08T20:36:25.294Z,50.00
2018-02-08T20:38:53.926Z,50.00
2018-02-08T20:41:21.638Z,49.50
2018-02-08T20:43:50.158Z,50.50
2018-02-08T20:46:17.706Z,50.40
2018-02-08T20:48:45.246Z,50.20
2018-02-08T20:51:12.786Z,50.00
2018-02-08T20:53:41.346Z,49.60
2018-02-08T20:56:08.878Z,49.60
2018-02-08T20:58:36.430Z,49.60
2018-02-08T21:01:03.973Z,49.70
2018-02-08T21:03:31.885Z,49.90
2018-02-08T21:05:59.798Z,49.60
2018-02-08T21:08:28.302Z,49.60
2018-02-08T21:10:56.071Z,49.60
2018-02-08T21:13:23.774Z,49.80
2018-02-08T21:15:51.321Z,49.90
2018-02-08T21:18:18.878Z,49.70
2018-02-08T21:20:46.498Z,49.60
2018-02-08T21:23:14.070Z,49.60
2018-02-08T21:25:41.803Z,49.60
2018-02-08T21:28:10.126Z,49.60
2018-02-08T21:30:37.690Z,49.60
2018-02-08T21:33:05.255Z,49.40
2018-02-08T21:35:32.818Z,49.20
2018-02-08T21:38:00.390Z,49.10
2018-02-08T21:40:27.951Z,49.40
2018-02-08T21:42:55.526Z,49.60
2018-02-08T21:45:24.006Z,49.40
2018-02-08T21:47:52.547Z,49.60
2018-02-08T21:50:20.250Z,49.60
2018-02-08T21:52:48.794Z,49.80
2018-02-08T21:55:16.371Z,49.20
2018-02-08T21:57:43.947Z,49.20
2018-02-08T22:00:11.510Z,49.20
2018-02-08T22:02:40.146Z,50.20
2018-02-08T22:05:08.584Z,49.70
2018-02-08T22:07:36.504Z,49.90
2018-02-08T22:10:04.267Z,49.80
2018-02-08T22:12:31.973Z,49.90
2018-02-08T22:15:00.511Z,49.40
2018-02-08T22:17:28.046Z,49.40
2018-02-08T22:19:55.835Z,49.40
2018-02-08T22:22:23.497Z,49.50
2018-02-08T22:24:51.261Z,49.60
2018-02-08T22:27:18.793Z,49.60
2018-02-08T22:29:46.358Z,49.70
2018-02-08T22:32:13.926Z,49.60
2018-02-08T22:34:41.496Z,49.80
2018-02-08T22:37:09.067Z,49.60
2018-02-08T22:39:36.633Z,49.70
2018-02-08T22:42:04.604Z,49.60
2018-02-08T22:44:32.289Z,49.80
2018-02-08T22:47:00.662Z,49.90
2018-02-08T22:49:28.325Z,49.70
2018-02-08T22:51:56.052Z,49.60
2018-02-08T22:54:23.762Z,49.60
2018-02-08T22:56:52.147Z,49.70
2018-02-08T22:59:20.618Z,49.80
2018-02-08T23:01:48.898Z,49.90
2018-02-08T23:04:17.432Z,49.90
2018-02-08T23:06:44.953Z,49.90
2018-02-08T23:09:12.522Z,50.00
2018-02-08T23:11:40.100Z,50.00
2018-02-08T23:14:07.667Z,49.90
2018-02-08T23:16:35.474Z,50.00
2018-02-08T23:19:03.196Z,49.90
2018-02-08T23:21:30.962Z,50.00
2018-02-08T23:23:58.702Z,50.10
2018-02-08T23:26:26.429Z,49.90
2018-02-08T23:28:54.129Z,50.00
2018-02-08T23:31:21.690Z,50.10
2018-02-08T23:33:49.268Z,50.10
2018-02-08T23:36:16.838Z,50.10
2018-02-08T23:38:44.418Z,50.20
2018-02-08T23:41:11.990Z,50.30
2018-02-08T23:43:40.470Z,50.90
2018-02-08T23:46:08.838Z,50.30
2018-02-08T23:48:36.571Z,50.20
2018-02-08T23:51:04.233Z,50.30
2018-02-08T23:53:31.894Z,50.10
2018-02-08T23:55:59.481Z,49.80
2018-02-08T23:58:27.034Z,50.00
